Time;durP1;ratioP1;P1;durP2;ratioP2;P2;SDS_P1;SDS_P2;PMS_P1;PMS_P2;Temp;Humidity;BMP_temperature;BMP_pressure;BME280_temperature;BME280_humidity;BME280_pressure;Samples;Min_cycle;Max_cycle;Signal;HPM_P1;HPM_P2
2021/07/08 07:43:06;;;;;;;979.70;907.35;;;19.60;99.90;;;;;;5091269;27;20605;-74
2021/07/08 07:45:32;;;;;;;1078.50;988.58;;;19.50;99.90;;;;;;5091167;28;20648;-74
2021/07/08 07:47:58;;;;;;;1174.95;999.90;;;19.60;99.90;;;;;;5091432;28;20243;-74
2021/07/08 07:50:25;;;;;;;1230.45;999.90;;;19.60;99.90;;;;;;5091079;28;20217;-74
2021/07/08 07:52:52;;;;;;;1252.30;999.90;;;19.60;99.90;;;;;;5089803;28;20173;-74
2021/07/08 07:55:18;;;;;;;1283.47;999.90;;;19.70;99.90;;;;;;5090991;28;20174;-74
2021/07/08 07:57:44;;;;;;;1297.07;999.90;;;19.70;99.90;;;;;;5090953;28;20201;-75
2021/07/08 08:00:11;;;;;;;1286.55;999.90;;;19.70;99.90;;;;;;5090775;28;20172;-75
2021/07/08 08:02:38;;;;;;;1279.50;999.90;;;19.80;99.90;;;;;;5090772;28;20191;-75
2021/07/08 08:10:14;;;;;;;1306.43;999.90;;;20.10;99.90;;;;;;5090862;28;20175;-74
2021/07/08 08:12:40;;;;;;;1319.15;999.90;;;20.20;99.90;;;;;;5090531;28;20168;-74
2021/07/08 08:15:07;;;;;;;1332.47;999.90;;;20.20;99.90;;;;;;5090437;28;20171;-74
2021/07/08 08:17:37;;;;;;;1329.53;999.90;;;20.40;99.90;;;;;;5090618;28;20164;-75
2021/07/08 08:20:05;;;;;;;1324.85;999.90;;;20.40;99.90;;;;;;5089459;28;20232;-72
2021/07/08 08:22:30;;;;;;;1294.93;999.90;;;20.50;99.90;;;;;;5090288;28;20199;-72
2021/07/08 08:24:56;;;;;;;1323.57;999.90;;;20.60;99.90;;;;;;5089481;28;20645;-72
2021/07/08 08:27:22;;;;;;;1322.82;999.90;;;20.80;99.90;;;;;;5090305;28;20163;-74
2021/07/08 08:29:48;;;;;;;1332.30;999.90;;;20.90;99.90;;;;;;5090282;28;20171;-73
2021/07/08 08:32:14;;;;;;;1295.85;999.90;;;21.10;99.90;;;;;;5090145;28;20164;-73
2021/07/08 08:34:39;;;;;;;1279.65;999.90;;;21.10;99.90;;;;;;5090374;28;20166;-72
2021/07/08 08:37:05;;;;;;;1283.18;999.90;;;21.20;99.90;;;;;;5090304;28;20179;-73
2021/07/08 08:39:31;;;;;;;1287.38;999.90;;;21.20;99.90;;;;;;5090123;28;20160;-74
2021/07/08 08:41:56;;;;;;;1300.50;999.90;;;21.20;99.90;;;;;;5090096;28;20537;-73
2021/07/08 08:44:22;;;;;;;1338.65;999.90;;;21.20;99.90;;;;;;5089949;28;20171;-73
2021/07/08 08:46:50;;;;;;;1309.18;999.90;;;21.30;99.90;;;;;;5089984;28;20191;-73
2021/07/08 08:49:15;;;;;;;1330.38;999.90;;;21.30;99.90;;;;;;5090044;28;20163;-73
2021/07/08 08:51:42;;;;;;;1337.75;999.90;;;21.30;99.90;;;;;;5090057;28;20175;-73
2021/07/08 08:54:08;;;;;;;1325.38;999.90;;;21.30;99.90;;;;;;5078377;28;20195;-73
2021/07/08 08:56:33;;;;;;;1343.18;999.90;;;21.40;99.90;;;;;;5076310;28;20633;-73
2021/07/08 08:58:59;;;;;;;1333.90;999.90;;;21.50;99.90;;;;;;5076303;28;20625;-73
2021/07/08 09:01:24;;;;;;;1386.28;999.90;;;21.50;99.90;;;;;;5076089;28;20210;-73
2021/07/08 09:03:50;;;;;;;1361.70;999.90;;;21.60;99.90;;;;;;5076196;28;20160;-73
2021/07/08 09:06:16;;;;;;;1363.75;999.90;;;21.60;99.90;;;;;;5076188;28;20640;-73
2021/07/08 09:08:50;;;;;;;1356.72;999.90;;;21.70;99.90;;;;;;5076325;28;20762;-73
2021/07/08 09:11:20;;;;;;;1369.60;999.90;;;21.70;99.90;;;;;;5076082;28;20176;-73
2021/07/08 09:13:53;;;;;;;1342.28;999.90;;;21.70;99.90;;;;;;5074936;28;20539;-73
2021/07/08 09:16:26;;;;;;;1328.40;999.90;;;21.70;99.90;;;;;;5076031;28;20245;-73
2021/07/08 09:18:57;;;;;;;1393.68;999.90;;;21.80;99.90;;;;;;5075979;28;20218;-73
2021/07/08 09:21:23;;;;;;;1386.70;999.90;;;21.90;99.90;;;;;;5074663;28;20199;-73
2021/07/08 09:24:17;;;;;;;1381.53;999.90;;;22.00;99.90;;;;;;5076217;28;20179;-73
2021/07/08 09:27:05;;;;;;;1310.25;999.90;;;22.10;99.90;;;;;;5075790;28;20644;-73
2021/07/08 09:29:33;;;;;;;1312.78;999.90;;;22.20;99.90;;;;;;5075507;28;20187;-73
2021/07/08 09:32:11;;;;;;;1322.50;999.90;;;22.20;99.90;;;;;;5075732;28;20598;-73
2021/07/08 09:34:39;;;;;;;1343.72;999.90;;;22.20;99.90;;;;;;5075736;28;20171;-73
2021/07/08 09:37:13;;;;;;;1369.43;999.90;;;22.20;99.90;;;;;;5075644;28;20164;-73
2021/07/08 09:39:41;;;;;;;1317.63;999.90;;;22.30;99.90;;;;;;5075660;28;20168;-73
2021/07/08 09:42:07;;;;;;;1329.15;999.90;;;22.40;99.90;;;;;;5075358;28;20230;-73
2021/07/08 09:44:34;;;;;;;1353.68;999.90;;;22.50;99.90;;;;;;5074412;28;20168;-73
2021/07/08 09:46:59;;;;;;;1337.45;999.90;;;22.50;99.90;;;;;;5074383;28;20640;-73
2021/07/08 09:49:27;;;;;;;1388.38;999.90;;;22.60;99.90;;;;;;5075281;28;20172;-72
2021/07/08 09:52:41;;;;;;;1391.32;999.90;;;22.60;99.90;;;;;;5075072;28;20178;-73
2021/07/08 09:55:19;;;;;;;1379.13;999.90;;;22.70;99.90;;;;;;5075404;28;20164;-73
2021/07/08 09:57:47;;;;;;;1348.55;999.90;;;22.80;99.90;;;;;;5074144;28;20545;-73
2021/07/08 10:00:18;;;;;;;1378.75;999.90;;;22.90;99.90;;;;;;5075191;28;20168;-73
2021/07/08 10:02:48;;;;;;;1540.20;999.90;;;22.90;99.90;;;;;;5074964;28;20191;-73
2021/07/08 10:05:15;;;;;;;1452.03;999.90;;;23.00;99.90;;;;;;5074053;28;20172;-73
2021/07/08 10:07:41;;;;;;;1489.22;999.90;;;23.00;99.90;;;;;;5075119;28;20171;-73
2021/07/08 10:10:07;;;;;;;1380.38;999.90;;;23.10;99.90;;;;;;5075086;28;20528;-73
2021/07/08 10:12:33;;;;;;;1439.38;999.90;;;23.10;99.90;;;;;;5075189;28;20172;-73
2021/07/08 10:15:01;;;;;;;1609.00;999.90;;;23.10;99.90;;;;;;5074941;28;20171;-73
2021/07/08 10:17:30;;;;;;;1536.70;999.90;;;23.10;99.90;;;;;;5075101;28;20171;-73
2021/07/08 10:19:56;;;;;;;1629.22;999.90;;;23.10;99.90;;;;;;5074779;28;20179;-73
2021/07/08 10:22:23;;;;;;;1543.75;999.90;;;23.00;99.90;;;;;;5074632;28;20636;-73
2021/07/08 10:24:49;;;;;;;1671.53;999.90;;;23.10;99.90;;;;;;5074642;28;20191;-73
2021/07/08 10:27:20;;;;;;;1565.05;999.90;;;23.10;99.90;;;;;;5074806;28;20168;-73
2021/07/08 10:29:47;;;;;;;1531.30;999.90;;;23.00;99.90;;;;;;5074505;28;20206;-73
2021/07/08 10:32:15;;;;;;;1578.68;999.90;;;22.90;99.90;;;;;;5074621;28;20196;-73
2021/07/08 10:34:50;;;;;;;1557.95;999.90;;;22.90;99.90;;;;;;5074409;28;20167;-73
2021/07/08 10:37:25;;;;;;;1388.80;999.90;;;22.90;99.90;;;;;;5074540;28;20163;-73
2021/07/08 10:39:50;;;;;;;1348.18;999.90;;;23.00;99.90;;;;;;5074412;28;20167;-73
2021/07/08 10:42:39;;;;;;;1329.25;999.90;;;22.90;99.90;;;;;;5074246;28;20696;-73
2021/07/08 10:45:05;;;;;;;1348.75;999.90;;;23.10;99.90;;;;;;5074413;28;20172;-73
2021/07/08 10:47:40;;;;;;;1318.95;999.90;;;23.10;99.90;;;;;;5074332;28;20257;-73
2021/07/08 10:50:27;;;;;;;1327.40;999.90;;;23.10;99.90;;;;;;5074268;28;20489;-73
2021/07/08 10:52:53;;;;;;;1342.53;999.90;;;23.00;99.90;;;;;;5072857;28;20206;-73
2021/07/08 10:55:39;;;;;;;1334.53;999.90;;;22.90;99.90;;;;;;5074095;28;20172;-73
2021/07/08 10:58:06;;;;;;;1288.60;999.90;;;22.90;99.90;;;;;;5074108;28;20239;-73
2021/07/08 11:00:48;;;;;;;1306.20;999.90;;;22.80;99.90;;;;;;5074107;28;20521;-73
2021/07/08 11:03:40;;;;;;;1314.22;999.90;;;22.80;99.90;;;;;;5073838;28;20163;-73
2021/07/08 11:06:16;;;;;;;1281.55;999.90;;;22.70;99.90;;;;;;5074031;28;20187;-72
2021/07/08 11:08:45;;;;;;;1305.57;999.90;;;22.70;99.90;;;;;;5073863;28;20159;-73
2021/07/08 11:11:31;;;;;;;1258.75;999.90;;;22.60;99.90;;;;;;5073752;28;20241;-73
2021/07/08 11:14:21;;;;;;;1232.68;999.90;;;22.50;99.90;;;;;;5073223;28;20184;-73
2021/07/08 11:17:07;;;;;;;1227.82;999.90;;;22.40;99.90;;;;;;5073180;28;20203;-72
2021/07/08 11:19:38;;;;;;;1235.53;999.90;;;22.20;99.90;;;;;;5073717;28;20159;-73
2021/07/08 11:22:16;;;;;;;1267.10;999.90;;;22.20;99.90;;;;;;5073879;28;20260;-73
2021/07/08 11:24:47;;;;;;;1284.45;999.90;;;22.10;99.90;;;;;;5073733;28;20175;-73
2021/07/08 11:27:37;;;;;;;1266.07;999.90;;;22.10;99.90;;;;;;5073842;28;20687;-72
2021/07/08 11:30:12;;;;;;;1259.63;999.90;;;22.10;99.90;;;;;;5072402;28;20179;-72
2021/07/08 11:35:37;;;;;;;1284.63;999.90;;;22.00;99.90;;;;;;5073964;28;20645;-73
2021/07/08 11:38:15;;;;;;;1299.65;999.90;;;21.80;99.90;;;;;;5073585;28;20167;-72
2021/07/08 11:40:48;;;;;;;1315.75;999.90;;;21.90;99.90;;;;;;5073339;28;20163;-73
2021/07/08 11:43:29;;;;;;;1314.80;999.90;;;21.90;99.90;;;;;;5073663;28;20168;-72
2021/07/08 11:46:02;;;;;;;1334.03;999.90;;;22.00;99.90;;;;;;5072373;28;20174;-72
2021/07/08 11:48:39;;;;;;;1341.35;999.90;;;22.00;99.90;;;;;;5073495;28;20191;-73
2021/07/08 11:51:19;;;;;;;1368.32;999.90;;;22.10;99.90;;;;;;5073494;28;20172;-73
2021/07/08 11:53:47;;;;;;;1340.47;999.90;;;22.20;99.90;;;;;;5073468;28;20183;-73
2021/07/08 11:56:17;;;;;;;1326.00;999.90;;;22.30;99.90;;;;;;5073633;28;20651;-73
2021/07/08 11:58:42;;;;;;;1366.18;999.90;;;22.20;99.90;;;;;;5073481;28;20259;-73
2021/07/08 12:01:12;;;;;;;1380.70;999.90;;;22.20;99.90;;;;;;5073418;28;20262;-72
2021/07/08 12:03:40;;;;;;;1397.45;999.90;;;22.30;99.90;;;;;;5073341;28;20172;-72
2021/07/08 12:06:13;;;;;;;1399.63;999.90;;;22.40;99.90;;;;;;5073410;28;20167;-73
2021/07/08 12:08:56;;;;;;;1344.93;999.90;;;22.40;99.90;;;;;;5072292;28;20183;-73
2021/07/08 12:11:42;;;;;;;1403.35;999.90;;;22.30;99.90;;;;;;5073157;28;20192;-73
2021/07/08 12:14:15;;;;;;;1375.15;999.90;;;22.30;99.90;;;;;;5073338;28;20168;-73
2021/07/08 12:16:49;;;;;;;1326.70;999.90;;;22.20;99.90;;;;;;5073162;28;20191;-73
2021/07/08 12:19:17;;;;;;;1374.75;999.90;;;22.10;99.90;;;;;;5073136;28;20171;-73
2021/07/08 12:21:45;;;;;;;1353.70;999.90;;;22.10;99.90;;;;;;5073251;28;20225;-73
2021/07/08 12:24:23;;;;;;;1371.43;999.90;;;22.20;99.90;;;;;;5073108;28;20160;-73
2021/07/08 12:26:48;;;;;;;1393.10;999.90;;;22.30;99.90;;;;;;5073538;28;20164;-73
2021/07/08 12:29:21;;;;;;;1333.68;999.90;;;22.40;99.90;;;;;;5074512;28;20304;-72
2021/07/08 12:31:54;;;;;;;1356.93;999.90;;;22.50;99.90;;;;;;5076727;28;20188;-72
2021/07/08 12:34:23;;;;;;;1340.30;999.90;;;22.50;99.90;;;;;;5076796;28;20191;-72
2021/07/08 12:36:49;;;;;;;1380.32;999.90;;;22.60;99.90;;;;;;5076830;28;20160;-73
2021/07/08 12:39:25;;;;;;;1397.55;999.90;;;22.60;99.90;;;;;;5076689;28;20168;-72
2021/07/08 12:41:51;;;;;;;1450.15;999.90;;;22.70;99.90;;;;;;5076289;28;20215;-73
2021/07/08 12:44:17;;;;;;;1442.47;999.90;;;22.80;99.90;;;;;;5076821;28;20259;-73
2021/07/08 12:46:43;;;;;;;1462.90;999.90;;;22.80;99.90;;;;;;5076748;28;20667;-73
2021/07/08 12:49:09;;;;;;;1406.07;999.90;;;22.80;99.90;;;;;;5076432;28;20536;-73
2021/07/08 12:51:38;;;;;;;1375.95;999.90;;;22.80;99.90;;;;;;5076420;28;20278;-73
2021/07/08 12:54:05;;;;;;;1322.40;999.90;;;22.80;99.90;;;;;;5076792;28;20163;-73
2021/07/08 12:56:30;;;;;;;1343.53;999.90;;;22.70;99.90;;;;;;5076416;28;20172;-73
2021/07/08 12:59:00;;;;;;;1360.53;999.90;;;22.70;99.90;;;;;;5076401;28;20172;-73
2021/07/08 13:01:28;;;;;;;1380.13;999.90;;;22.70;99.90;;;;;;5076308;28;20213;-73
2021/07/08 13:03:57;;;;;;;1345.72;999.90;;;22.70;99.90;;;;;;5076041;28;20164;-73
2021/07/08 13:06:28;;;;;;;1342.35;999.90;;;22.80;99.90;;;;;;5076106;28;20225;-73
2021/07/08 13:09:11;;;;;;;1336.30;999.90;;;22.60;99.90;;;;;;5076068;28;20175;-73
2021/07/08 13:11:37;;;;;;;1331.00;999.90;;;22.60;99.90;;;;;;5076142;28;20188;-73
2021/07/08 13:14:23;;;;;;;1306.45;999.90;;;22.50;99.90;;;;;;5075988;28;20171;-73
2021/07/08 13:17:01;;;;;;;1292.93;999.90;;;22.40;99.90;;;;;;5075953;28;20195;-73
2021/07/08 13:19:27;;;;;;;1298.50;999.90;;;22.30;99.90;;;;;;5075748;28;20171;-73
2021/07/08 13:21:52;;;;;;;1342.25;999.90;;;22.20;99.90;;;;;;5075837;28;20164;-72
2021/07/08 13:24:23;;;;;;;1338.78;999.90;;;22.20;99.90;;;;;;5075908;28;20195;-72
2021/07/08 13:26:48;;;;;;;1330.22;999.90;;;22.20;99.90;;;;;;5074629;28;20252;-73
2021/07/08 13:29:14;;;;;;;1361.25;999.90;;;22.20;99.90;;;;;;5075830;28;20172;-72
2021/07/08 13:31:40;;;;;;;1363.60;999.90;;;22.20;99.90;;;;;;5074427;28;20195;-73
2021/07/08 13:34:05;;;;;;;1340.47;999.90;;;22.20;99.90;;;;;;5075686;28;20164;-73
2021/07/08 13:36:40;;;;;;;1329.55;999.90;;;22.20;99.90;;;;;;5074423;28;20191;-73
2021/07/08 13:39:10;;;;;;;1339.38;999.90;;;22.10;99.90;;;;;;5075551;28;20194;-72
2021/07/08 13:41:48;;;;;;;1357.72;999.90;;;22.10;99.90;;;;;;5075393;28;20223;-73
2021/07/08 13:44:22;;;;;;;1326.18;999.90;;;22.20;99.90;;;;;;5074428;28;20172;-73
2021/07/08 13:47:01;;;;;;;1322.80;999.90;;;22.10;99.90;;;;;;5075665;28;20167;-73
2021/07/08 13:49:40;;;;;;;1310.63;999.90;;;22.10;99.90;;;;;;5075353;28;20171;-72
2021/07/08 13:52:09;;;;;;;1313.25;999.90;;;22.00;99.90;;;;;;5075404;28;20233;-73
2021/07/08 13:54:37;;;;;;;1326.95;999.90;;;21.90;99.90;;;;;;5075289;28;20637;-73
2021/07/08 13:57:06;;;;;;;1326.38;999.90;;;21.80;99.90;;;;;;5075381;28;20164;-72
2021/07/08 13:59:32;;;;;;;1328.50;999.90;;;22.00;99.90;;;;;;5075284;28;20655;-72
2021/07/08 14:01:58;;;;;;;1333.30;999.90;;;22.00;99.90;;;;;;5073846;28;20199;-73
2021/07/08 14:04:24;;;;;;;1329.95;999.90;;;22.10;99.90;;;;;;5075042;28;20168;-73
2021/07/08 14:06:51;;;;;;;1317.32;999.90;;;22.20;99.90;;;;;;5075096;28;20214;-73
2021/07/08 14:09:17;;;;;;;1317.00;999.90;;;22.20;99.90;;;;;;5074905;28;20168;-73
2021/07/08 14:11:44;;;;;;;1325.90;999.90;;;22.30;99.90;;;;;;5074828;28;20188;-73
2021/07/08 14:14:10;;;;;;;1320.57;999.90;;;22.30;99.90;;;;;;5074824;28;20176;-73
2021/07/08 14:16:36;;;;;;;1312.60;999.90;;;22.30;99.90;;;;;;5073624;28;20192;-73
2021/07/08 14:19:02;;;;;;;1299.63;999.90;;;22.30;99.90;;;;;;5073741;28;20191;-74
2021/07/08 14:21:28;;;;;;;1301.13;999.90;;;22.20;99.90;;;;;;5074720;28;20636;-74
2021/07/08 14:23:55;;;;;;;1312.40;999.90;;;22.20;99.90;;;;;;5074591;28;20191;-73
2021/07/08 14:26:21;;;;;;;1307.10;999.90;;;22.20;99.90;;;;;;5074537;28;20523;-73
2021/07/08 14:28:47;;;;;;;1295.35;999.90;;;22.10;99.90;;;;;;5074533;28;20480;-74
2021/07/08 14:31:13;;;;;;;1308.57;999.90;;;22.00;99.90;;;;;;5074484;28;20199;-73
2021/07/08 14:33:39;;;;;;;1295.70;999.90;;;21.90;99.90;;;;;;5074604;28;20612;-73
2021/07/08 14:36:06;;;;;;;1297.57;999.90;;;21.80;99.90;;;;;;5074488;28;20195;-73
2021/07/08 14:38:32;;;;;;;1291.15;999.90;;;21.70;99.90;;;;;;5074289;28;20167;-73
2021/07/08 14:41:00;;;;;;;1304.30;999.90;;;21.60;99.90;;;;;;5074102;28;20172;-73
2021/07/08 14:44:02;;;;;;;1312.13;999.90;;;21.60;99.90;;;;;;5074495;28;20164;-73
2021/07/08 14:46:30;;;;;;;1308.57;999.90;;;21.60;99.90;;;;;;5074293;28;20164;-73
2021/07/08 14:48:58;;;;;;;1300.28;999.90;;;21.50;99.90;;;;;;5074246;28;20266;-73
2021/07/08 14:51:24;;;;;;;1296.78;999.90;;;21.40;99.90;;;;;;5073719;28;20195;-73
2021/07/08 14:53:53;;;;;;;1298.65;999.90;;;21.40;99.90;;;;;;5074163;28;20222;-73
2021/07/08 14:56:18;;;;;;;1298.85;999.90;;;21.30;99.90;;;;;;5074071;28;20172;-73
2021/07/08 14:58:44;;;;;;;1307.47;999.90;;;21.20;99.90;;;;;;5074102;28;20698;-73
2021/07/08 15:01:11;;;;;;;1293.90;999.90;;;21.20;99.90;;;;;;5073921;28;20156;-74
2021/07/08 15:03:37;;;;;;;1296.90;999.90;;;21.10;99.90;;;;;;5072861;28;20172;-73
2021/07/08 15:06:03;;;;;;;1301.85;999.90;;;21.00;99.90;;;;;;5073976;28;20250;-73
2021/07/08 15:08:28;;;;;;;1298.32;999.90;;;20.90;99.90;;;;;;5073982;28;20171;-73
2021/07/08 15:10:59;;;;;;;1301.93;999.90;;;20.80;99.90;;;;;;5073777;28;20160;-73
2021/07/08 15:13:31;;;;;;;1304.78;999.90;;;20.80;99.90;;;;;;5073976;28;20170;-73
2021/07/08 15:15:57;;;;;;;1322.75;999.90;;;20.80;99.90;;;;;;5073848;28;20198;-73
2021/07/08 17:42:13;;;;;;;294.17;280.15;;;16.70;99.90;;;;;;5091169;27;20504;-73
2021/07/08 17:44:39;;;;;;;359.08;341.65;;;16.70;99.90;;;;;;5091037;28;20633;-73
2021/07/08 17:47:05;;;;;;;424.23;402.83;;;16.70;99.90;;;;;;5090983;28;20176;-74
2021/07/08 17:49:34;;;;;;;585.40;551.92;;;16.70;99.90;;;;;;5091246;28;20629;-74
2021/07/08 17:52:01;;;;;;;657.85;618.42;;;16.70;99.90;;;;;;5091241;28;20174;-74
2021/07/08 17:54:27;;;;;;;702.17;659.08;;;16.70;99.90;;;;;;5089772;28;20199;-74
